sensor_id;sensor_type;location;lat;lon;timestamp;P1;durP1;ratioP1;P2;durP2;ratioP2
22778;SDS011;11556;51.194;3.800;2022-12-07T00:01:39;13.18;;;5.50;;
22778;SDS011;11556;51.194;3.800;2022-12-07T00:04:07;14.57;;;5.63;;
22778;SDS011;11556;51.194;3.800;2022-12-07T00:06:35;13.02;;;5.55;;
22778;SDS011;11556;51.194;3.800;2022-12-07T00:09:03;14.65;;;6.38;;
22778;SDS011;11556;51.194;3.800;2022-12-07T00:11:29;13.73;;;5.25;;
22778;SDS011;11556;51.194;3.800;2022-12-07T00:13:56;10.98;;;5.63;;
22778;SDS011;11556;51.194;3.800;2022-12-07T00:16:24;12.13;;;5.40;;
22778;SDS011;11556;51.194;3.800;2022-12-07T00:18:52;16.23;;;5.78;;
22778;SDS011;11556;51.194;3.800;2022-12-07T00:21:19;14.48;;;5.63;;
22778;SDS011;11556;51.194;3.800;2022-12-07T00:23:47;11.65;;;5.32;;
22778;SDS011;11556;51.194;3.800;2022-12-07T00:26:15;15.00;;;5.85;;
22778;SDS011;11556;51.194;3.800;2022-12-07T00:28:49;16.42;;;5.45;;
22778;SDS011;11556;51.194;3.800;2022-12-07T00:31:20;12.98;;;5.68;;
22778;SDS011;11556;51.194;3.800;2022-12-07T00:33:48;11.55;;;5.95;;
22778;SDS011;11556;51.194;3.800;2022-12-07T00:36:15;16.83;;;5.22;;
22778;SDS011;11556;51.194;3.800;2022-12-07T00:38:43;9.75;;;5.32;;
22778;SDS011;11556;51.194;3.800;2022-12-07T00:41:10;15.93;;;5.00;;
22778;SDS011;11556;51.194;3.800;2022-12-07T00:43:38;9.77;;;4.60;;
22778;SDS011;11556;51.194;3.800;2022-12-07T00:46:05;11.00;;;4.80;;
22778;SDS011;11556;51.194;3.800;2022-12-07T00:48:31;10.95;;;4.07;;
22778;SDS011;11556;51.194;3.800;2022-12-07T00:50:56;11.13;;;4.13;;
22778;SDS011;11556;51.194;3.800;2022-12-07T00:53:22;11.43;;;4.38;;
22778;SDS011;11556;51.194;3.800;2022-12-07T00:55:48;9.48;;;4.15;;
22778;SDS011;11556;51.194;3.800;2022-12-07T00:58:13;10.52;;;4.65;;
22778;SDS011;11556;51.194;3.800;2022-12-07T01:00:40;12.10;;;4.18;;
22778;SDS011;11556;51.194;3.800;2022-12-07T01:03:07;15.85;;;4.50;;
22778;SDS011;11556;51.194;3.800;2022-12-07T01:05:35;10.52;;;4.95;;
22778;SDS011;11556;51.194;3.800;2022-12-07T01:08:01;11.38;;;5.10;;
22778;SDS011;11556;51.194;3.800;2022-12-07T01:10:27;15.38;;;5.65;;
22778;SDS011;11556;51.194;3.800;2022-12-07T01:12:55;15.10;;;7.07;;
22778;SDS011;11556;51.194;3.800;2022-12-07T01:15:20;14.25;;;8.65;;
22778;SDS011;11556;51.194;3.800;2022-12-07T01:17:46;16.08;;;8.32;;
22778;SDS011;11556;51.194;3.800;2022-12-07T01:20:12;17.45;;;8.75;;
22778;SDS011;11556;51.194;3.800;2022-12-07T01:22:38;19.10;;;7.82;;
22778;SDS011;11556;51.194;3.800;2022-12-07T01:25:05;16.33;;;7.57;;
22778;SDS011;11556;51.194;3.800;2022-12-07T01:27:32;16.50;;;8.07;;
22778;SDS011;11556;51.194;3.800;2022-12-07T01:29:58;16.63;;;7.88;;
22778;SDS011;11556;51.194;3.800;2022-12-07T01:32:24;15.88;;;7.20;;
22778;SDS011;11556;51.194;3.800;2022-12-07T01:34:50;14.27;;;7.10;;
22778;SDS011;11556;51.194;3.800;2022-12-07T01:37:15;18.42;;;7.72;;
22778;SDS011;11556;51.194;3.800;2022-12-07T01:39:41;14.85;;;6.70;;
22778;SDS011;11556;51.194;3.800;2022-12-07T01:42:10;12.38;;;6.63;;
22778;SDS011;11556;51.194;3.800;2022-12-07T01:47:40;16.83;;;6.45;;
22778;SDS011;11556;51.194;3.800;2022-12-07T01:50:06;16.00;;;6.28;;
22778;SDS011;11556;51.194;3.800;2022-12-07T01:52:33;12.05;;;5.82;;
22778;SDS011;11556;51.194;3.800;2022-12-07T01:55:03;14.80;;;6.25;;
22778;SDS011;11556;51.194;3.800;2022-12-07T01:57:36;15.57;;;6.57;;
22778;SDS011;11556;51.194;3.800;2022-12-07T02:00:05;12.82;;;5.78;;
22778;SDS011;11556;51.194;3.800;2022-12-07T02:02:42;11.45;;;5.70;;
22778;SDS011;11556;51.194;3.800;2022-12-07T02:05:28;13.98;;;6.22;;
22778;SDS011;11556;51.194;3.800;2022-12-07T02:07:55;22.35;;;5.75;;
22778;SDS011;11556;51.194;3.800;2022-12-07T02:10:26;12.20;;;5.80;;
22778;SDS011;11556;51.194;3.800;2022-12-07T02:13:12;21.67;;;6.20;;
22778;SDS011;11556;51.194;3.800;2022-12-07T02:15:46;20.90;;;6.60;;
22778;SDS011;11556;51.194;3.800;2022-12-07T02:18:30;15.80;;;6.47;;
22778;SDS011;11556;51.194;3.800;2022-12-07T02:29:38;20.08;;;6.95;;
22778;SDS011;11556;51.194;3.800;2022-12-07T02:35:17;18.13;;;6.85;;
22778;SDS011;11556;51.194;3.800;2022-12-07T02:41:04;12.55;;;6.43;;
22778;SDS011;11556;51.194;3.800;2022-12-07T02:43:44;22.13;;;7.80;;
22778;SDS011;11556;51.194;3.800;2022-12-07T02:48:45;20.55;;;8.65;;
22778;SDS011;11556;51.194;3.800;2022-12-07T02:51:11;18.10;;;8.82;;
22778;SDS011;11556;51.194;3.800;2022-12-07T02:53:38;17.17;;;8.40;;
22778;SDS011;11556;51.194;3.800;2022-12-07T02:56:24;22.80;;;9.23;;
22778;SDS011;11556;51.194;3.800;2022-12-07T03:02:31;13.95;;;7.63;;
22778;SDS011;11556;51.194;3.800;2022-12-07T03:05:05;14.20;;;7.88;;
22778;SDS011;11556;51.194;3.800;2022-12-07T03:08:06;17.20;;;7.63;;
22778;SDS011;11556;51.194;3.800;2022-12-07T03:16:14;15.25;;;6.68;;
22778;SDS011;11556;51.194;3.800;2022-12-07T03:18:55;17.17;;;6.15;;
22778;SDS011;11556;51.194;3.800;2022-12-07T03:21:31;17.33;;;6.65;;
22778;SDS011;11556;51.194;3.800;2022-12-07T03:24:04;16.25;;;6.18;;
22778;SDS011;11556;51.194;3.800;2022-12-07T03:26:37;16.38;;;7.07;;
22778;SDS011;11556;51.194;3.800;2022-12-07T03:29:09;13.55;;;6.57;;
22778;SDS011;11556;51.194;3.800;2022-12-07T03:31:40;15.55;;;6.50;;
22778;SDS011;11556;51.194;3.800;2022-12-07T03:36:52;17.20;;;6.53;;
22778;SDS011;11556;51.194;3.800;2022-12-07T03:39:39;14.00;;;6.22;;
22778;SDS011;11556;51.194;3.800;2022-12-07T03:42:14;13.85;;;5.72;;
22778;SDS011;11556;51.194;3.800;2022-12-07T03:44:40;19.33;;;6.10;;
22778;SDS011;11556;51.194;3.800;2022-12-07T03:47:15;11.85;;;6.05;;
22778;SDS011;11556;51.194;3.800;2022-12-07T03:49:55;17.50;;;5.75;;
22778;SDS011;11556;51.194;3.800;2022-12-07T03:52:40;12.80;;;4.95;;
22778;SDS011;11556;51.194;3.800;2022-12-07T03:57:38;15.93;;;4.85;;
22778;SDS011;11556;51.194;3.800;2022-12-07T04:00:06;17.55;;;4.90;;
22778;SDS011;11556;51.194;3.800;2022-12-07T04:02:34;21.15;;;5.80;;
22778;SDS011;11556;51.194;3.800;2022-12-07T04:05:01;18.20;;;5.35;;
22778;SDS011;11556;51.194;3.800;2022-12-07T04:07:27;14.43;;;5.45;;
22778;SDS011;11556;51.194;3.800;2022-12-07T04:09:53;14.23;;;4.85;;
22778;SDS011;11556;51.194;3.800;2022-12-07T04:12:20;14.88;;;5.05;;
22778;SDS011;11556;51.194;3.800;2022-12-07T04:14:46;16.67;;;5.95;;
22778;SDS011;11556;51.194;3.800;2022-12-07T04:17:11;19.02;;;6.03;;
22778;SDS011;11556;51.194;3.800;2022-12-07T04:19:37;17.33;;;6.45;;
22778;SDS011;11556;51.194;3.800;2022-12-07T04:22:03;16.98;;;6.03;;
22778;SDS011;11556;51.194;3.800;2022-12-07T04:24:30;12.80;;;5.85;;
22778;SDS011;11556;51.194;3.800;2022-12-07T04:26:56;18.77;;;5.28;;
22778;SDS011;11556;51.194;3.800;2022-12-07T04:29:21;13.77;;;4.43;;
22778;SDS011;11556;51.194;3.800;2022-12-07T04:31:47;15.05;;;5.30;;
22778;SDS011;11556;51.194;3.800;2022-12-07T04:34:13;10.20;;;4.35;;
22778;SDS011;11556;51.194;3.800;2022-12-07T04:36:39;14.43;;;3.53;;
22778;SDS011;11556;51.194;3.800;2022-12-07T04:39:05;17.58;;;3.13;;
22778;SDS011;11556;51.194;3.800;2022-12-07T04:41:32;12.65;;;2.70;;
22778;SDS011;11556;51.194;3.800;2022-12-07T04:44:00;17.70;;;2.92;;
22778;SDS011;11556;51.194;3.800;2022-12-07T04:46:27;11.85;;;3.38;;
22778;SDS011;11556;51.194;3.800;2022-12-07T04:48:54;16.98;;;3.85;;
22778;SDS011;11556;51.194;3.800;2022-12-07T04:51:21;11.82;;;3.63;;
22778;SDS011;11556;51.194;3.800;2022-12-07T04:53:49;19.55;;;3.22;;
22778;SDS011;11556;51.194;3.800;2022-12-07T04:56:15;9.50;;;3.03;;
22778;SDS011;11556;51.194;3.800;2022-12-07T04:58:42;14.32;;;3.63;;
22778;SDS011;11556;51.194;3.800;2022-12-07T05:01:09;12.05;;;3.15;;
22778;SDS011;11556;51.194;3.800;2022-12-07T05:03:35;7.88;;;2.97;;
22778;SDS011;11556;51.194;3.800;2022-12-07T05:06:01;12.30;;;2.92;;
22778;SDS011;11556;51.194;3.800;2022-12-07T05:08:27;11.00;;;3.10;;
22778;SDS011;11556;51.194;3.800;2022-12-07T05:10:54;10.50;;;3.25;;
22778;SDS011;11556;51.194;3.800;2022-12-07T05:13:19;9.82;;;3.28;;
22778;SDS011;11556;51.194;3.800;2022-12-07T05:15:46;10.68;;;3.13;;
22778;SDS011;11556;51.194;3.800;2022-12-07T05:18:12;11.85;;;3.80;;
22778;SDS011;11556;51.194;3.800;2022-12-07T05:20:38;20.23;;;4.68;;
22778;SDS011;11556;51.194;3.800;2022-12-07T05:23:04;13.57;;;4.53;;
22778;SDS011;11556;51.194;3.800;2022-12-07T05:25:30;22.55;;;4.32;;
22778;SDS011;11556;51.194;3.800;2022-12-07T05:27:56;20.35;;;4.70;;
22778;SDS011;11556;51.194;3.800;2022-12-07T05:30:22;16.75;;;4.38;;
22778;SDS011;11556;51.194;3.800;2022-12-07T05:32:48;15.55;;;3.70;;
22778;SDS011;11556;51.194;3.800;2022-12-07T05:35:14;12.45;;;3.75;;
22778;SDS011;11556;51.194;3.800;2022-12-07T05:37:40;10.52;;;3.67;;
22778;SDS011;11556;51.194;3.800;2022-12-07T05:40:06;22.33;;;5.97;;
22778;SDS011;11556;51.194;3.800;2022-12-07T05:42:32;13.63;;;5.13;;
22778;SDS011;11556;51.194;3.800;2022-12-07T05:44:58;12.65;;;3.92;;
22778;SDS011;11556;51.194;3.800;2022-12-07T05:47:23;16.85;;;3.90;;
22778;SDS011;11556;51.194;3.800;2022-12-07T05:49:49;12.05;;;3.15;;
22778;SDS011;11556;51.194;3.800;2022-12-07T05:52:14;17.90;;;3.90;;
22778;SDS011;11556;51.194;3.800;2022-12-07T05:54:40;18.02;;;3.95;;
22778;SDS011;11556;51.194;3.800;2022-12-07T05:57:05;17.52;;;9.38;;
22778;SDS011;11556;51.194;3.800;2022-12-07T05:59:31;19.70;;;6.57;;
22778;SDS011;11556;51.194;3.800;2022-12-07T06:02:06;9.65;;;3.28;;
22778;SDS011;11556;51.194;3.800;2022-12-07T06:04:34;17.98;;;3.30;;
22778;SDS011;11556;51.194;3.800;2022-12-07T06:07:02;16.15;;;2.83;;
22778;SDS011;11556;51.194;3.800;2022-12-07T06:09:28;12.77;;;3.22;;
22778;SDS011;11556;51.194;3.800;2022-12-07T06:11:54;8.93;;;2.58;;
22778;SDS011;11556;51.194;3.800;2022-12-07T06:14:40;11.27;;;3.42;;
22778;SDS011;11556;51.194;3.800;2022-12-07T06:17:06;17.65;;;5.40;;
22778;SDS011;11556;51.194;3.800;2022-12-07T06:19:31;13.82;;;4.57;;
22778;SDS011;11556;51.194;3.800;2022-12-07T06:21:57;12.23;;;4.38;;
22778;SDS011;11556;51.194;3.800;2022-12-07T06:24:23;13.20;;;3.50;;
22778;SDS011;11556;51.194;3.800;2022-12-07T06:26:49;15.82;;;4.50;;
22778;SDS011;11556;51.194;3.800;2022-12-07T06:29:16;16.65;;;4.07;;
22778;SDS011;11556;51.194;3.800;2022-12-07T06:31:42;11.95;;;3.58;;
22778;SDS011;11556;51.194;3.800;2022-12-07T06:34:11;14.75;;;3.80;;
22778;SDS011;11556;51.194;3.800;2022-12-07T06:36:39;14.45;;;4.30;;
22778;SDS011;11556;51.194;3.800;2022-12-07T06:39:05;13.52;;;5.05;;
22778;SDS011;11556;51.194;3.800;2022-12-07T06:41:32;18.05;;;6.63;;
22778;SDS011;11556;51.194;3.800;2022-12-07T06:43:58;12.35;;;3.45;;
22778;SDS011;11556;51.194;3.800;2022-12-07T06:46:24;11.52;;;3.33;;
22778;SDS011;11556;51.194;3.800;2022-12-07T06:48:50;13.35;;;4.82;;
22778;SDS011;11556;51.194;3.800;2022-12-07T06:51:17;23.90;;;9.27;;
22778;SDS011;11556;51.194;3.800;2022-12-07T06:53:43;20.50;;;5.15;;
22778;SDS011;11556;51.194;3.800;2022-12-07T06:56:08;16.90;;;5.78;;
22778;SDS011;11556;51.194;3.800;2022-12-07T06:58:34;12.73;;;4.70;;
22778;SDS011;11556;51.194;3.800;2022-12-07T07:00:59;13.95;;;5.05;;
22778;SDS011;11556;51.194;3.800;2022-12-07T07:03:25;22.63;;;6.88;;
22778;SDS011;11556;51.194;3.800;2022-12-07T07:05:51;13.02;;;4.30;;
22778;SDS011;11556;51.194;3.800;2022-12-07T07:08:16;12.90;;;4.25;;
22778;SDS011;11556;51.194;3.800;2022-12-07T07:10:42;9.30;;;4.15;;
22778;SDS011;11556;51.194;3.800;2022-12-07T07:13:07;15.93;;;5.10;;
22778;SDS011;11556;51.194;3.800;2022-12-07T07:15:33;12.98;;;5.00;;
22778;SDS011;11556;51.194;3.800;2022-12-07T07:18:00;18.42;;;5.05;;
22778;SDS011;11556;51.194;3.800;2022-12-07T07:20:25;12.20;;;5.75;;
22778;SDS011;11556;51.194;3.800;2022-12-07T07:22:53;18.58;;;6.90;;
22778;SDS011;11556;51.194;3.800;2022-12-07T07:25:20;14.15;;;6.25;;
22778;SDS011;11556;51.194;3.800;2022-12-07T07:27:45;17.02;;;7.63;;
22778;SDS011;11556;51.194;3.800;2022-12-07T07:30:11;19.90;;;6.28;;
22778;SDS011;11556;51.194;3.800;2022-12-07T07:32:37;16.35;;;6.63;;
22778;SDS011;11556;51.194;3.800;2022-12-07T07:35:03;24.67;;;10.57;;
22778;SDS011;11556;51.194;3.800;2022-12-07T07:37:29;26.25;;;9.00;;
22778;SDS011;11556;51.194;3.800;2022-12-07T07:39:54;22.27;;;8.60;;
22778;SDS011;11556;51.194;3.800;2022-12-07T07:42:20;18.25;;;8.93;;
22778;SDS011;11556;51.194;3.800;2022-12-07T07:44:45;31.05;;;15.70;;
22778;SDS011;11556;51.194;3.800;2022-12-07T07:47:11;36.72;;;18.60;;
22778;SDS011;11556;51.194;3.800;2022-12-07T07:49:37;28.35;;;12.13;;
22778;SDS011;11556;51.194;3.800;2022-12-07T07:52:02;26.05;;;12.65;;
22778;SDS011;11556;51.194;3.800;2022-12-07T07:54:30;24.85;;;11.32;;
22778;SDS011;11556;51.194;3.800;2022-12-07T07:56:55;22.63;;;7.40;;
22778;SDS011;11556;51.194;3.800;2022-12-07T07:59:21;24.85;;;11.15;;
22778;SDS011;11556;51.194;3.800;2022-12-07T08:01:46;22.13;;;8.68;;
22778;SDS011;11556;51.194;3.800;2022-12-07T08:04:12;25.75;;;9.20;;
22778;SDS011;11556;51.194;3.800;2022-12-07T08:06:37;16.88;;;7.75;;
22778;SDS011;11556;51.194;3.800;2022-12-07T08:09:03;23.77;;;8.90;;
22778;SDS011;11556;51.194;3.800;2022-12-07T08:11:30;18.42;;;7.78;;
22778;SDS011;11556;51.194;3.800;2022-12-07T08:13:56;17.25;;;8.38;;
22778;SDS011;11556;51.194;3.800;2022-12-07T08:16:21;22.92;;;9.07;;
22778;SDS011;11556;51.194;3.800;2022-12-07T08:18:47;19.48;;;8.25;;
22778;SDS011;11556;51.194;3.800;2022-12-07T08:21:14;21.23;;;8.20;;
22778;SDS011;11556;51.194;3.800;2022-12-07T08:23:40;20.02;;;9.25;;
22778;SDS011;11556;51.194;3.800;2022-12-07T08:26:07;19.13;;;8.60;;
22778;SDS011;11556;51.194;3.800;2022-12-07T08:28:35;20.80;;;8.77;;
22778;SDS011;11556;51.194;3.800;2022-12-07T08:31:06;21.08;;;8.50;;
22778;SDS011;11556;51.194;3.800;2022-12-07T08:33:37;19.52;;;8.13;;
22778;SDS011;11556;51.194;3.800;2022-12-07T08:36:04;14.55;;;6.60;;
22778;SDS011;11556;51.194;3.800;2022-12-07T08:38:31;20.05;;;6.63;;
22778;SDS011;11556;51.194;3.800;2022-12-07T08:40:59;14.88;;;6.25;;
22778;SDS011;11556;51.194;3.800;2022-12-07T08:43:24;19.52;;;5.60;;
22778;SDS011;11556;51.194;3.800;2022-12-07T08:45:53;15.85;;;5.20;;
22778;SDS011;11556;51.194;3.800;2022-12-07T08:48:55;14.82;;;5.80;;
22778;SDS011;11556;51.194;3.800;2022-12-07T08:51:34;23.65;;;5.82;;
22778;SDS011;11556;51.194;3.800;2022-12-07T08:54:01;20.15;;;5.68;;
22778;SDS011;11556;51.194;3.800;2022-12-07T08:56:29;12.93;;;5.80;;
22778;SDS011;11556;51.194;3.800;2022-12-07T08:58:55;20.25;;;6.28;;
22778;SDS011;11556;51.194;3.800;2022-12-07T09:01:22;14.48;;;6.00;;
22778;SDS011;11556;51.194;3.800;2022-12-07T09:03:48;14.52;;;6.10;;
22778;SDS011;11556;51.194;3.800;2022-12-07T09:06:13;14.32;;;5.95;;
22778;SDS011;11556;51.194;3.800;2022-12-07T09:08:40;19.75;;;7.38;;
22778;SDS011;11556;51.194;3.800;2022-12-07T09:11:10;16.50;;;6.68;;
22778;SDS011;11556;51.194;3.800;2022-12-07T09:13:36;19.63;;;6.80;;
22778;SDS011;11556;51.194;3.800;2022-12-07T09:16:01;16.25;;;6.70;;
22778;SDS011;11556;51.194;3.800;2022-12-07T09:18:27;16.73;;;7.05;;
22778;SDS011;11556;51.194;3.800;2022-12-07T09:20:53;21.25;;;7.45;;
22778;SDS011;11556;51.194;3.800;2022-12-07T09:23:18;27.30;;;7.57;;
22778;SDS011;11556;51.194;3.800;2022-12-07T09:25:44;21.67;;;6.05;;
22778;SDS011;11556;51.194;3.800;2022-12-07T09:28:09;15.75;;;5.35;;
22778;SDS011;11556;51.194;3.800;2022-12-07T09:30:35;13.27;;;5.32;;
22778;SDS011;11556;51.194;3.800;2022-12-07T09:33:00;19.48;;;5.68;;
22778;SDS011;11556;51.194;3.800;2022-12-07T09:35:26;14.45;;;5.30;;
22778;SDS011;11556;51.194;3.800;2022-12-07T09:37:52;28.45;;;6.63;;
22778;SDS011;11556;51.194;3.800;2022-12-07T09:40:18;15.43;;;4.70;;
22778;SDS011;11556;51.194;3.800;2022-12-07T09:42:50;11.55;;;4.50;;
22778;SDS011;11556;51.194;3.800;2022-12-07T09:45:25;16.95;;;3.97;;
22778;SDS011;11556;51.194;3.800;2022-12-07T09:47:56;11.23;;;3.95;;
22778;SDS011;11556;51.194;3.800;2022-12-07T09:50:24;8.13;;;2.85;;
22778;SDS011;11556;51.194;3.800;2022-12-07T09:52:52;12.25;;;3.40;;
22778;SDS011;11556;51.194;3.800;2022-12-07T09:55:22;10.80;;;3.10;;
22778;SDS011;11556;51.194;3.800;2022-12-07T09:57:52;8.15;;;2.90;;
22778;SDS011;11556;51.194;3.800;2022-12-07T10:00:19;15.60;;;3.33;;
22778;SDS011;11556;51.194;3.800;2022-12-07T10:02:51;11.35;;;3.00;;
22778;SDS011;11556;51.194;3.800;2022-12-07T10:05:23;11.43;;;3.20;;
22778;SDS011;11556;51.194;3.800;2022-12-07T10:07:52;13.75;;;3.20;;
22778;SDS011;11556;51.194;3.800;2022-12-07T10:10:30;11.32;;;3.22;;
22778;SDS011;11556;51.194;3.800;2022-12-07T10:12:58;9.88;;;2.65;;
22778;SDS011;11556;51.194;3.800;2022-12-07T10:16:04;9.93;;;2.25;;
22778;SDS011;11556;51.194;3.800;2022-12-07T10:20:59;5.13;;;2.03;;
22778;SDS011;11556;51.194;3.800;2022-12-07T10:23:35;12.43;;;2.50;;
22778;SDS011;11556;51.194;3.800;2022-12-07T10:28:55;20.77;;;2.75;;
22778;SDS011;11556;51.194;3.800;2022-12-07T10:31:46;14.23;;;2.67;;
22778;SDS011;11556;51.194;3.800;2022-12-07T10:36:54;8.52;;;2.40;;
22778;SDS011;11556;51.194;3.800;2022-12-07T10:42:26;5.45;;;1.42;;
22778;SDS011;11556;51.194;3.800;2022-12-07T10:45:07;7.28;;;1.63;;
22778;SDS011;11556;51.194;3.800;2022-12-07T10:58:24;10.48;;;1.92;;
22778;SDS011;11556;51.194;3.800;2022-12-07T11:01:09;3.22;;;1.60;;
22778;SDS011;11556;51.194;3.800;2022-12-07T11:03:45;5.88;;;1.90;;
22778;SDS011;11556;51.194;3.800;2022-12-07T11:11:59;8.70;;;1.60;;
22778;SDS011;11556;51.194;3.800;2022-12-07T11:20:02;8.13;;;1.60;;
22778;SDS011;11556;51.194;3.800;2022-12-07T11:22:48;7.75;;;1.60;;
22778;SDS011;11556;51.194;3.800;2022-12-07T11:28:03;4.60;;;1.70;;
22778;SDS011;11556;51.194;3.800;2022-12-07T11:38:53;5.97;;;1.58;;
22778;SDS011;11556;51.194;3.800;2022-12-07T11:41:23;4.68;;;1.30;;
22778;SDS011;11556;51.194;3.800;2022-12-07T11:49:12;3.95;;;1.00;;
22778;SDS011;11556;51.194;3.800;2022-12-07T11:51:44;3.17;;;1.00;;
22778;SDS011;11556;51.194;3.800;2022-12-07T11:54:15;2.75;;;1.08;;
22778;SDS011;11556;51.194;3.800;2022-12-07T11:56:42;2.72;;;0.85;;
22778;SDS011;11556;51.194;3.800;2022-12-07T11:59:13;5.18;;;0.85;;
22778;SDS011;11556;51.194;3.800;2022-12-07T12:04:25;4.10;;;0.80;;
22778;SDS011;11556;51.194;3.800;2022-12-07T12:06:52;5.15;;;1.08;;
22778;SDS011;11556;51.194;3.800;2022-12-07T12:23:15;7.70;;;0.80;;
22778;SDS011;11556;51.194;3.800;2022-12-07T12:25:45;2.33;;;0.57;;
22778;SDS011;11556;51.194;3.800;2022-12-07T12:30:45;6.82;;;1.88;;
22778;SDS011;11556;51.194;3.800;2022-12-07T12:33:20;5.78;;;2.75;;
22778;SDS011;11556;51.194;3.800;2022-12-07T12:44:08;5.78;;;1.88;;
22778;SDS011;11556;51.194;3.800;2022-12-07T12:47:03;5.93;;;1.90;;
22778;SDS011;11556;51.194;3.800;2022-12-07T12:57:35;6.88;;;2.30;;
22778;SDS011;11556;51.194;3.800;2022-12-07T13:00:09;7.45;;;2.35;;
22778;SDS011;11556;51.194;3.800;2022-12-07T13:02:58;9.18;;;3.63;;
22778;SDS011;11556;51.194;3.800;2022-12-07T13:05:25;11.30;;;5.47;;
22778;SDS011;11556;51.194;3.800;2022-12-07T13:07:56;13.48;;;5.07;;
22778;SDS011;11556;51.194;3.800;2022-12-07T13:15:36;7.72;;;3.00;;
22778;SDS011;11556;51.194;3.800;2022-12-07T13:18:22;5.97;;;1.65;;
22778;SDS011;11556;51.194;3.800;2022-12-07T13:23:38;6.57;;;2.03;;
22778;SDS011;11556;51.194;3.800;2022-12-07T13:28:43;6.95;;;3.47;;
22778;SDS011;11556;51.194;3.800;2022-12-07T13:31:16;9.32;;;3.58;;
22778;SDS011;11556;51.194;3.800;2022-12-07T13:33:48;11.63;;;6.60;;
22778;SDS011;11556;51.194;3.800;2022-12-07T13:36:16;6.80;;;3.33;;
22778;SDS011;11556;51.194;3.800;2022-12-07T13:38:51;11.90;;;4.30;;
22778;SDS011;11556;51.194;3.800;2022-12-07T13:41:20;9.95;;;4.57;;
22778;SDS011;11556;51.194;3.800;2022-12-07T13:43:52;12.10;;;4.60;;
22778;SDS011;11556;51.194;3.800;2022-12-07T13:46:27;8.13;;;4.50;;
22778;SDS011;11556;51.194;3.800;2022-12-07T13:49:21;18.58;;;5.88;;
22778;SDS011;11556;51.194;3.800;2022-12-07T13:51:48;3.13;;;1.23;;
22778;SDS011;11556;51.194;3.800;2022-12-07T13:54:14;6.43;;;1.80;;
22778;SDS011;11556;51.194;3.800;2022-12-07T13:56:41;3.03;;;0.80;;
22778;SDS011;11556;51.194;3.800;2022-12-07T13:59:12;3.55;;;1.10;;
22778;SDS011;11556;51.194;3.800;2022-12-07T14:01:47;2.67;;;1.15;;
22778;SDS011;11556;51.194;3.800;2022-12-07T14:09:54;1.35;;;0.70;;
22778;SDS011;11556;51.194;3.800;2022-12-07T14:12:24;2.00;;;0.80;;
22778;SDS011;11556;51.194;3.800;2022-12-07T14:14:51;4.38;;;1.80;;
22778;SDS011;11556;51.194;3.800;2022-12-07T14:17:18;7.22;;;0.88;;
22778;SDS011;11556;51.194;3.800;2022-12-07T14:19:51;4.30;;;0.93;;
22778;SDS011;11556;51.194;3.800;2022-12-07T14:22:24;3.88;;;1.13;;
22778;SDS011;11556;51.194;3.800;2022-12-07T14:27:39;6.47;;;1.80;;
22778;SDS011;11556;51.194;3.800;2022-12-07T14:30:15;5.43;;;2.47;;
22778;SDS011;11556;51.194;3.800;2022-12-07T14:32:42;6.35;;;3.25;;
22778;SDS011;11556;51.194;3.800;2022-12-07T14:35:13;6.43;;;3.35;;
22778;SDS011;11556;51.194;3.800;2022-12-07T14:37:41;5.53;;;2.75;;
22778;SDS011;11556;51.194;3.800;2022-12-07T14:40:12;4.70;;;2.33;;
22778;SDS011;11556;51.194;3.800;2022-12-07T14:42:42;3.75;;;1.38;;
22778;SDS011;11556;51.194;3.800;2022-12-07T14:45:16;4.32;;;1.42;;
22778;SDS011;11556;51.194;3.800;2022-12-07T14:47:44;5.50;;;1.10;;
22778;SDS011;11556;51.194;3.800;2022-12-07T14:50:13;4.97;;;1.65;;
22778;SDS011;11556;51.194;3.800;2022-12-07T14:52:42;5.82;;;2.10;;
22778;SDS011;11556;51.194;3.800;2022-12-07T14:55:44;4.32;;;1.67;;
22778;SDS011;11556;51.194;3.800;2022-12-07T14:58:02;10.57;;;1.30;;
22778;SDS011;11556;51.194;3.800;2022-12-07T15:00:28;4.75;;;1.08;;
22778;SDS011;11556;51.194;3.800;2022-12-07T15:02:55;6.18;;;1.30;;
22778;SDS011;11556;51.194;3.800;2022-12-07T15:05:20;6.38;;;1.10;;
22778;SDS011;11556;51.194;3.800;2022-12-07T15:07:47;6.88;;;1.52;;
22778;SDS011;11556;51.194;3.800;2022-12-07T15:10:15;6.20;;;1.13;;
22778;SDS011;11556;51.194;3.800;2022-12-07T15:12:43;6.30;;;1.25;;
22778;SDS011;11556;51.194;3.800;2022-12-07T15:15:09;7.43;;;1.13;;
22778;SDS011;11556;51.194;3.800;2022-12-07T15:17:35;4.82;;;1.45;;
22778;SDS011;11556;51.194;3.800;2022-12-07T15:20:00;7.03;;;2.10;;
22778;SDS011;11556;51.194;3.800;2022-12-07T15:22:26;8.02;;;2.72;;
22778;SDS011;11556;51.194;3.800;2022-12-07T15:24:52;10.55;;;3.15;;
22778;SDS011;11556;51.194;3.800;2022-12-07T15:27:17;11.23;;;2.60;;
22778;SDS011;11556;51.194;3.800;2022-12-07T15:29:43;6.07;;;2.42;;
22778;SDS011;11556;51.194;3.800;2022-12-07T15:32:08;38.25;;;14.98;;
22778;SDS011;11556;51.194;3.800;2022-12-07T15:34:34;22.33;;;9.68;;
22778;SDS011;11556;51.194;3.800;2022-12-07T15:37:00;10.65;;;3.88;;
22778;SDS011;11556;51.194;3.800;2022-12-07T15:39:25;9.82;;;2.50;;
22778;SDS011;11556;51.194;3.800;2022-12-07T15:41:51;9.07;;;3.15;;
22778;SDS011;11556;51.194;3.800;2022-12-07T15:44:16;8.05;;;3.25;;
22778;SDS011;11556;51.194;3.800;2022-12-07T15:47:00;5.53;;;3.22;;
22778;SDS011;11556;51.194;3.800;2022-12-07T15:49:26;5.05;;;2.55;;
22778;SDS011;11556;51.194;3.800;2022-12-07T15:51:52;9.82;;;2.85;;
22778;SDS011;11556;51.194;3.800;2022-12-07T15:54:19;4.53;;;2.90;;
22778;SDS011;11556;51.194;3.800;2022-12-07T15:56:50;9.43;;;3.05;;
22778;SDS011;11556;51.194;3.800;2022-12-07T15:59:16;6.68;;;3.20;;
22778;SDS011;11556;51.194;3.800;2022-12-07T16:01:41;12.00;;;3.38;;
22778;SDS011;11556;51.194;3.800;2022-12-07T16:04:08;7.90;;;3.20;;
22778;SDS011;11556;51.194;3.800;2022-12-07T16:06:33;5.85;;;3.13;;
22778;SDS011;11556;51.194;3.800;2022-12-07T16:08:59;7.55;;;4.85;;
22778;SDS011;11556;51.194;3.800;2022-12-07T16:11:25;10.88;;;3.90;;
22778;SDS011;11556;51.194;3.800;2022-12-07T16:13:51;9.65;;;3.80;;
22778;SDS011;11556;51.194;3.800;2022-12-07T16:16:17;31.35;;;12.93;;
22778;SDS011;11556;51.194;3.800;2022-12-07T16:18:45;55.47;;;23.42;;
22778;SDS011;11556;51.194;3.800;2022-12-07T16:21:11;67.50;;;24.00;;
22778;SDS011;11556;51.194;3.800;2022-12-07T16:23:38;38.67;;;14.38;;
22778;SDS011;11556;51.194;3.800;2022-12-07T16:26:11;26.10;;;12.95;;
22778;SDS011;11556;51.194;3.800;2022-12-07T16:28:38;8.30;;;4.43;;
22778;SDS011;11556;51.194;3.800;2022-12-07T16:31:05;7.72;;;2.90;;
22778;SDS011;11556;51.194;3.800;2022-12-07T16:33:35;9.18;;;2.30;;
22778;SDS011;11556;51.194;3.800;2022-12-07T16:36:03;8.60;;;2.78;;
22778;SDS011;11556;51.194;3.800;2022-12-07T16:38:30;12.35;;;4.32;;
22778;SDS011;11556;51.194;3.800;2022-12-07T16:40:56;10.40;;;3.30;;
22778;SDS011;11556;51.194;3.800;2022-12-07T16:43:22;10.90;;;3.97;;
22778;SDS011;11556;51.194;3.800;2022-12-07T16:45:48;13.40;;;5.20;;
22778;SDS011;11556;51.194;3.800;2022-12-07T16:48:14;18.20;;;7.15;;
22778;SDS011;11556;51.194;3.800;2022-12-07T16:50:41;13.40;;;6.47;;
22778;SDS011;11556;51.194;3.800;2022-12-07T16:53:08;18.40;;;10.73;;
22778;SDS011;11556;51.194;3.800;2022-12-07T16:55:41;15.65;;;7.57;;
22778;SDS011;11556;51.194;3.800;2022-12-07T16:58:09;13.00;;;7.53;;
22778;SDS011;11556;51.194;3.800;2022-12-07T17:00:35;16.33;;;7.03;;
22778;SDS011;11556;51.194;3.800;2022-12-07T17:03:01;10.02;;;5.50;;
22778;SDS011;11556;51.194;3.800;2022-12-07T17:05:27;12.02;;;5.18;;
22778;SDS011;11556;51.194;3.800;2022-12-07T17:07:54;18.45;;;5.75;;